sensor_id;sensor_type;location;lat;lon;timestamp;P1;durP1;ratioP1;P2;durP2;ratioP2
14774;SDS011;7479;47.042;15.160;2024-02-28T07:18:13;15.53;;;9.27;;
14774;SDS011;7479;47.042;15.160;2024-02-28T07:23:07;20.57;;;9.37;;
14774;SDS011;7479;47.042;15.160;2024-02-28T07:28:00;16.73;;;8.60;;
14774;SDS011;7479;47.042;15.160;2024-02-28T07:32:54;12.77;;;6.33;;
14774;SDS011;7479;47.042;15.160;2024-02-28T07:37:50;12.53;;;6.00;;
14774;SDS011;7479;47.042;15.160;2024-02-28T07:42:43;12.40;;;5.83;;
14774;SDS011;7479;47.042;15.160;2024-02-28T07:47:37;9.50;;;4.93;;
14774;SDS011;7479;47.042;15.160;2024-02-28T08:01:30;8.60;;;4.63;;
14774;SDS011;7479;47.042;15.160;2024-02-28T08:06:24;7.53;;;4.87;;
14774;SDS011;7479;47.042;15.160;2024-02-28T08:11:18;11.30;;;5.47;;
14774;SDS011;7479;47.042;15.160;2024-02-28T08:16:12;7.20;;;4.67;;
14774;SDS011;7479;47.042;15.160;2024-02-28T08:21:07;12.10;;;5.33;;
14774;SDS011;7479;47.042;15.160;2024-02-28T08:26:02;16.17;;;5.20;;
14774;SDS011;7479;47.042;15.160;2024-02-28T08:30:55;9.93;;;5.43;;
14774;SDS011;7479;47.042;15.160;2024-02-28T08:35:49;11.90;;;7.27;;
14774;SDS011;7479;47.042;15.160;2024-02-28T08:40:45;11.57;;;6.50;;
14774;SDS011;7479;47.042;15.160;2024-02-28T08:45:38;10.17;;;5.60;;
14774;SDS011;7479;47.042;15.160;2024-02-28T08:50:32;14.97;;;5.80;;
14774;SDS011;7479;47.042;15.160;2024-02-28T08:55:26;10.17;;;4.77;;
14774;SDS011;7479;47.042;15.160;2024-02-28T09:00:23;7.87;;;4.03;;
14774;SDS011;7479;47.042;15.160;2024-02-28T09:05:17;8.57;;;4.70;;
14774;SDS011;7479;47.042;15.160;2024-02-28T09:10:11;11.37;;;4.63;;
14774;SDS011;7479;47.042;15.160;2024-02-28T09:15:05;12.47;;;5.23;;
14774;SDS011;7479;47.042;15.160;2024-02-28T09:20:01;8.07;;;3.97;;
14774;SDS011;7479;47.042;15.160;2024-02-28T09:24:58;5.83;;;3.57;;
14774;SDS011;7479;47.042;15.160;2024-02-28T09:29:51;7.10;;;3.50;;
14774;SDS011;7479;47.042;15.160;2024-02-28T09:34:45;7.37;;;4.67;;
14774;SDS011;7479;47.042;15.160;2024-02-28T09:39:40;4.87;;;3.00;;
14774;SDS011;7479;47.042;15.160;2024-02-28T09:44:34;4.03;;;3.10;;
14774;SDS011;7479;47.042;15.160;2024-02-28T09:49:31;6.10;;;3.30;;
14774;SDS011;7479;47.042;15.160;2024-02-28T09:54:25;4.97;;;3.10;;
14774;SDS011;7479;47.042;15.160;2024-02-28T09:59:20;4.00;;;2.80;;
14774;SDS011;7479;47.042;15.160;2024-02-28T10:04:30;5.73;;;3.27;;
14774;SDS011;7479;47.042;15.160;2024-02-28T10:09:24;5.20;;;3.80;;
14774;SDS011;7479;47.042;15.160;2024-02-28T10:14:18;5.57;;;3.10;;
14774;SDS011;7479;47.042;15.160;2024-02-28T10:19:13;5.57;;;3.10;;
14774;SDS011;7479;47.042;15.160;2024-02-28T10:24:07;5.53;;;2.93;;
14774;SDS011;7479;47.042;15.160;2024-02-28T10:29:01;6.60;;;4.33;;
14774;SDS011;7479;47.042;15.160;2024-02-28T10:33:59;5.33;;;3.00;;
14774;SDS011;7479;47.042;15.160;2024-02-28T10:38:56;4.50;;;2.90;;
14774;SDS011;7479;47.042;15.160;2024-02-28T10:43:51;4.97;;;2.90;;
14774;SDS011;7479;47.042;15.160;2024-02-28T10:48:46;5.40;;;2.70;;
14774;SDS011;7479;47.042;15.160;2024-02-28T10:53:44;7.63;;;3.00;;
14774;SDS011;7479;47.042;15.160;2024-02-28T10:58:45;5.03;;;2.50;;
14774;SDS011;7479;47.042;15.160;2024-02-28T11:03:44;8.43;;;2.67;;
14774;SDS011;7479;47.042;15.160;2024-02-28T11:08:38;6.10;;;2.93;;
14774;SDS011;7479;47.042;15.160;2024-02-28T11:13:32;6.43;;;2.37;;
14774;SDS011;7479;47.042;15.160;2024-02-28T11:18:28;7.33;;;3.30;;
14774;SDS011;7479;47.042;15.160;2024-02-28T11:23:21;3.37;;;2.50;;
14774;SDS011;7479;47.042;15.160;2024-02-28T11:28:15;3.53;;;2.50;;
14774;SDS011;7479;47.042;15.160;2024-02-28T11:33:14;4.17;;;2.47;;
14774;SDS011;7479;47.042;15.160;2024-02-28T11:38:12;3.90;;;2.60;;
14774;SDS011;7479;47.042;15.160;2024-02-28T11:43:07;6.10;;;2.90;;
14774;SDS011;7479;47.042;15.160;2024-02-28T11:48:00;4.93;;;2.57;;
14774;SDS011;7479;47.042;15.160;2024-02-28T11:52:55;3.90;;;2.25;;
14774;SDS011;7479;47.042;15.160;2024-02-28T11:57:50;6.05;;;2.95;;
14774;SDS011;7479;47.042;15.160;2024-02-28T12:02:44;6.38;;;2.50;;
14774;SDS011;7479;47.042;15.160;2024-02-28T12:07:41;6.68;;;3.00;;
14774;SDS011;7479;47.042;15.160;2024-02-28T12:12:35;6.53;;;2.72;;
14774;SDS011;7479;47.042;15.160;2024-02-28T12:17:30;6.43;;;2.97;;
14774;SDS011;7479;47.042;15.160;2024-02-28T12:22:24;7.15;;;3.03;;
14774;SDS011;7479;47.042;15.160;2024-02-28T12:27:18;4.32;;;2.85;;
14774;SDS011;7479;47.042;15.160;2024-02-28T12:32:12;3.15;;;2.85;;
14774;SDS011;7479;47.042;15.160;2024-02-28T12:37:10;3.40;;;2.83;;
14774;SDS011;7479;47.042;15.160;2024-02-28T12:42:04;4.20;;;3.00;;
14774;SDS011;7479;47.042;15.160;2024-02-28T12:47:00;7.07;;;3.10;;
14774;SDS011;7479;47.042;15.160;2024-02-28T12:51:53;5.50;;;3.20;;
14774;SDS011;7479;47.042;15.160;2024-02-28T12:56:48;5.95;;;3.40;;
14774;SDS011;7479;47.042;15.160;2024-02-28T13:01:42;5.40;;;3.25;;
14774;SDS011;7479;47.042;15.160;2024-02-28T13:06:39;4.68;;;3.28;;
14774;SDS011;7479;47.042;15.160;2024-02-28T13:11:33;5.43;;;3.70;;
14774;SDS011;7479;47.042;15.160;2024-02-28T13:16:28;10.57;;;3.22;;
14774;SDS011;7479;47.042;15.160;2024-02-28T13:21:22;6.38;;;3.42;;
14774;SDS011;7479;47.042;15.160;2024-02-28T13:26:15;4.43;;;3.30;;
14774;SDS011;7479;47.042;15.160;2024-02-28T13:31:10;6.25;;;3.92;;
14774;SDS011;7479;47.042;15.160;2024-02-28T13:36:07;7.45;;;3.60;;
14774;SDS011;7479;47.042;15.160;2024-02-28T13:41:01;4.55;;;3.63;;
14774;SDS011;7479;47.042;15.160;2024-02-28T13:45:55;4.57;;;3.25;;
14774;SDS011;7479;47.042;15.160;2024-02-28T13:50:52;6.13;;;4.15;;
14774;SDS011;7479;47.042;15.160;2024-02-28T13:55:48;6.18;;;3.70;;
14774;SDS011;7479;47.042;15.160;2024-02-28T14:00:41;7.38;;;3.78;;
14774;SDS011;7479;47.042;15.160;2024-02-28T14:05:37;7.38;;;3.50;;
14774;SDS011;7479;47.042;15.160;2024-02-28T14:10:31;7.35;;;3.78;;
14774;SDS011;7479;47.042;15.160;2024-02-28T14:15:26;6.60;;;3.90;;
14774;SDS011;7479;47.042;15.160;2024-02-28T14:20:20;6.40;;;4.00;;
14774;SDS011;7479;47.042;15.160;2024-02-28T14:25:14;10.20;;;4.15;;
14774;SDS011;7479;47.042;15.160;2024-02-28T14:30:09;8.52;;;4.43;;
14774;SDS011;7479;47.042;15.160;2024-02-28T14:35:06;7.45;;;4.07;;
14774;SDS011;7479;47.042;15.160;2024-02-28T14:40:01;8.15;;;4.72;;
14774;SDS011;7479;47.042;15.160;2024-02-28T14:44:57;7.45;;;4.93;;
14774;SDS011;7479;47.042;15.160;2024-02-28T14:49:51;10.32;;;5.05;;
14774;SDS011;7479;47.042;15.160;2024-02-28T14:54:47;7.97;;;4.43;;
14774;SDS011;7479;47.042;15.160;2024-02-28T14:59:40;7.90;;;4.43;;
14774;SDS011;7479;47.042;15.160;2024-02-28T15:04:35;4.85;;;3.80;;
14774;SDS011;7479;47.042;15.160;2024-02-28T15:09:29;9.70;;;4.43;;
14774;SDS011;7479;47.042;15.160;2024-02-28T15:14:24;7.45;;;4.38;;
14774;SDS011;7479;47.042;15.160;2024-02-28T15:19:18;6.68;;;4.35;;
14774;SDS011;7479;47.042;15.160;2024-02-28T15:24:12;8.43;;;4.18;;
14774;SDS011;7479;47.042;15.160;2024-02-28T15:29:07;7.15;;;4.32;;
14774;SDS011;7479;47.042;15.160;2024-02-28T15:34:03;10.15;;;5.10;;
14774;SDS011;7479;47.042;15.160;2024-02-28T15:38:57;7.75;;;4.05;;
14774;SDS011;7479;47.042;15.160;2024-02-28T15:43:50;9.23;;;4.85;;
14774;SDS011;7479;47.042;15.160;2024-02-28T15:48:44;9.40;;;4.27;;
14774;SDS011;7479;47.042;15.160;2024-02-28T15:53:40;10.67;;;4.40;;
14774;SDS011;7479;47.042;15.160;2024-02-28T15:58:34;10.43;;;4.60;;
14774;SDS011;7479;47.042;15.160;2024-02-28T16:03:27;11.07;;;4.70;;
14774;SDS011;7479;47.042;15.160;2024-02-28T16:08:21;6.57;;;4.27;;
14774;SDS011;7479;47.042;15.160;2024-02-28T16:13:18;10.10;;;5.17;;
14774;SDS011;7479;47.042;15.160;2024-02-28T16:18:12;9.43;;;4.90;;
14774;SDS011;7479;47.042;15.160;2024-02-28T16:23:06;24.00;;;14.70;;
14774;SDS011;7479;47.042;15.160;2024-02-28T16:28:00;19.07;;;11.47;;
14774;SDS011;7479;47.042;15.160;2024-02-28T16:32:55;12.23;;;6.70;;
14774;SDS011;7479;47.042;15.160;2024-02-28T16:37:49;14.53;;;6.10;;
14774;SDS011;7479;47.042;15.160;2024-02-28T16:42:43;12.93;;;9.67;;
14774;SDS011;7479;47.042;15.160;2024-02-28T16:47:37;14.07;;;9.80;;
14774;SDS011;7479;47.042;15.160;2024-02-28T16:52:32;15.57;;;7.70;;
14774;SDS011;7479;47.042;15.160;2024-02-28T16:57:26;18.27;;;8.50;;
14774;SDS011;7479;47.042;15.160;2024-02-28T17:02:19;19.43;;;9.53;;
14774;SDS011;7479;47.042;15.160;2024-02-28T17:07:13;21.33;;;8.07;;
14774;SDS011;7479;47.042;15.160;2024-02-28T17:12:12;11.90;;;8.40;;
14774;SDS011;7479;47.042;15.160;2024-02-28T17:17:07;12.60;;;8.53;;
14774;SDS011;7479;47.042;15.160;2024-02-28T17:22:01;15.50;;;8.17;;
14774;SDS011;7479;47.042;15.160;2024-02-28T17:26:56;15.70;;;7.50;;
14774;SDS011;7479;47.042;15.160;2024-02-28T17:31:52;13.97;;;8.83;;
14774;SDS011;7479;47.042;15.160;2024-02-28T17:36:46;11.97;;;6.73;;
14774;SDS011;7479;47.042;15.160;2024-02-28T17:41:40;8.90;;;6.70;;
14774;SDS011;7479;47.042;15.160;2024-02-28T17:46:34;12.80;;;7.07;;
14774;SDS011;7479;47.042;15.160;2024-02-28T17:51:29;32.20;;;17.43;;
14774;SDS011;7479;47.042;15.160;2024-02-28T17:56:27;21.60;;;12.83;;
14774;SDS011;7479;47.042;15.160;2024-02-28T18:01:20;25.73;;;15.23;;
14774;SDS011;7479;47.042;15.160;2024-02-28T18:06:15;17.00;;;11.37;;
